Fire Island, New York
Current Conditions -  °F | °C
As of 1:56 PM on Thursday 27 Nov 2014 (Local Time) from KISP Reporting Station
Light Rain Light Rain  
Wind Chill: 31°   Ceiling: 1500
Heat Index: 38°   Visibility: 9mi
Dew Point: 31°   Wind: 10mph
Humidity: 76%   Direction: 300°WNW
Pressure: 29.94"   Gusts: NA
Location:  40.6448°N, 73.1603°W
Report Text: KISP 271856Z 30009KT 9SM -RA FEW011 BKN015 OVC021 03/M01 A2994 RMK AO2 RAB22SNB46E55 SLP139 P0000 T00331006
Loading
Personal Weather Stations






























Interactive Weather Map New forecast layout! Learn more

10-Day Weather Forecast

Advertisements
Track Severe Weather on mobile